Airfield :
LOGIN :

Register | Disclaimer

   EN    FR    IT 

 










Legend :    VFR   Marginal VFR   IFR   Intensive IFR   Very Intensive IFR
Visi :
Ceiling :
>= 8 km
>= 3000ft
5 to 8 km
1000 to 3000 ft
1500m to 5 km
500 to 1000 ft
800 to 1500m
200 to 500 ft
< 800m
< 200 ft
Symbols :   Thunderstorms  Fog  Heavy snow  Heavy precipitations  Wind > 20 kt
SIGMETs :     Misc.  Thunderstorms  Icing  Turbulence  Mountain Waves  Volcanic Ashes






- Airport Elevation : 85 ft
- IATA code : SFA


DTTX - Thyna/El Maou - Sfax

CURRENT METAR :
  • 181300Z 09009KT 050V120 9999 FEW030 20/10 Q1013

EXPIRED METARs :
  • 181200Z 10011KT 070V130 9999 FEW030 20/09 Q1014
  • 181100Z 10010KT 070V140 9999 FEW030 20/08 Q1014
  • 181000Z 02007KT 350V060 CAVOK 21/06 Q1015
  • 180900Z 01008KT 340V040 CAVOK 20/06 Q1015

TAF TAF DTTX
Valid from the 18 at 12:00 until the 19 at 12:00 UTC


181100Z 1812/1912 10010KT 9999 SCT020
BECMG 1819/1821 VRB02KT
BECMG 1901/1903 02010KT
BECMG 1903/1905 34012KT
TEMPO 1909/1912 34020G30KT



MET'MAP, your aeronautical weather chart ! - Copyright ORBIFLY December 2007 - Disclaimer

ORBIFLY MET'MAP TEAM :

Programming & Development : Alexandra Zaïnal
Original concept : Baudouin d'Aumeries
Technical & hardware support : Manuel Goepfert
Assistance : Marc-Olivier Méhu




SOURCES & CREDITS :

   NOAA